Observation data for Post on 03/22/2019      Previous  Date  Next       Current Mesonet Observations  Soil Data  Daily Summary Page  Observations in Plain Language
KPT1 220500Z 14002KT 13/M02 A3016 RMK A01 T01311018  RH  036%=      5-min Rain = 0
KPT1 220505Z 14002KT 13/M02 A3016 RMK A01 T01291019  RH  036%=      5-min Rain = 0
KPT1 220510Z 14003KT 13/M02 A3016 RMK A01 T01301020  RH  036%=      5-min Rain = 0
KPT1 220515Z 13003KT 13/M02 A3016 RMK A01 T01301020  RH  036%=      5-min Rain = 0
KPT1 220520Z 12004KT 13/M02 A3015 RMK A01 T01311021  RH  035%=      5-min Rain = 0
KPT1 220525Z 11004KT 13/M02 A3015 RMK A01 T01291019  RH  036%=      5-min Rain = 0
KPT1 220530Z 11003KT 13/M02 A3015 RMK A01 T01291021  RH  036%=      5-min Rain = 0
KPT1 220535Z 12003KT 13/M02 A3015 RMK A01 T01271020  RH  036%=      5-min Rain = 0
KPT1 220540Z 12002KT 12/M02 A3015 RMK A01 T01241019  RH  037%=      5-min Rain = 0
KPT1 220545Z 12001KT 12/M02 A3015 RMK A01 T01231018  RH  038%=      5-min Rain = 0
KPT1 220550Z 12002KT 12/M02 A3015 RMK A01 T01221017  RH  039%=      5-min Rain = 0
KPT1 220555Z 12001KT 12/M02 A3015 RMK A01 T01221016  RH  039%=      5-min Rain = 0
KPT1 220600Z 12002KT 12/M02 A3015 RMK A01 T01211016  RH  039%=      5-min Rain = 0
KPT1 220605Z 12003KT 12/M02 A3014 RMK A01 T01211019  RH  038%=      5-min Rain = 0
KPT1 220610Z 12004KT 12/M02 A3014 RMK A01 T01231021  RH  037%=      5-min Rain = 0
KPT1 220615Z 12005KT 12/M02 A3014 RMK A01 T01221020  RH  038%=      5-min Rain = 0
KPT1 220620Z 13004KT 12/M02 A3014 RMK A01 T01201018  RH  039%=      5-min Rain = 0
KPT1 220625Z 14003KT 12/M02 A3014 RMK A01 T01191017  RH  039%=      5-min Rain = 0
KPT1 220630Z 14003KT 12/M02 A3014 RMK A01 T01191016  RH  039%=      5-min Rain = 0
KPT1 220635Z 14004KT 12/M02 A3013 RMK A01 T01191016  RH  040%=      5-min Rain = 0
KPT1 220640Z 12004KT 12/M02 A3013 RMK A01 T01201016  RH  039%=      5-min Rain = 0
KPT1 220645Z 13003KT 12/M02 A3013 RMK A01 T01201016  RH  039%=      5-min Rain = 0
KPT1 220650Z 13002KT 12/M01 A3014 RMK A01 T01181011  RH  041%=      5-min Rain = 0
KPT1 220655Z 25000KT 11/M00 A3014 RMK A01 T01071004  RH  047%=      5-min Rain = 0
KPT1 220700Z 18000KT 11/M01 A3014 RMK A01 T01111005  RH  045%=      5-min Rain = 0
KPT1 220705Z 00000KT 11/M00 A3014 RMK A01 T01091004  RH  046%=      5-min Rain = 0
KPT1 220710Z 00000KT 11/M01 A3013 RMK A01 T01081005  RH  046%=      5-min Rain = 0
KPT1 220715Z 00000KT 11/M00 A3013 RMK A01 T01071004  RH  047%=      5-min Rain = 0
KPT1 220720Z 30001KT 10/M00 A3013 RMK A01 T01021001  RH  049%=      5-min Rain = 0
KPT1 220725Z 30002KT 10/00 A3013 RMK A01 T00980003  RH  052%=      5-min Rain = 0
KPT1 220730Z 31003KT 09/00 A3013 RMK A01 T00940001  RH  053%=      5-min Rain = 0
KPT1 220735Z 30002KT 09/M00 A3013 RMK A01 T00941001  RH  052%=      5-min Rain = 0
KPT1 220740Z 29002KT 09/00 A3013 RMK A01 T00940000  RH  052%=      5-min Rain = 0
KPT1 220745Z 28001KT 10/00 A3013 RMK A01 T00960000  RH  052%=      5-min Rain = 0
KPT1 220750Z 26000KT 10/M00 A3013 RMK A01 T00981003  RH  050%=      5-min Rain = 0
KPT1 220755Z 16001KT 10/M01 A3012 RMK A01 T01031007  RH  047%=      5-min Rain = 0
KPT1 220800Z 16001KT 10/M00 A3012 RMK A01 T01021004  RH  048%=      5-min Rain = 0
KPT1 220805Z 16000KT 10/M00 A3012 RMK A01 T01011004  RH  049%=      5-min Rain = 0
KPT1 220810Z 00000KT 10/M00 A3012 RMK A01 T01001002  RH  050%=      5-min Rain = 0
KPT1 220815Z 26000KT 10/00 A3012 RMK A01 T00950003  RH  053%=      5-min Rain = 0
KPT1 220820Z 26001KT 10/00 A3012 RMK A01 T00970002  RH  052%=      5-min Rain = 0
KPT1 220825Z 25001KT 09/00 A3012 RMK A01 T00920002  RH  054%=      5-min Rain = 0
KPT1 220830Z 27001KT 09/M00 A3012 RMK A01 T00911001  RH  053%=      5-min Rain = 0
KPT1 220835Z 29002KT 10/M01 A3012 RMK A01 T01001005  RH  049%=      5-min Rain = 0
KPT1 220840Z 29002KT 10/M00 A3012 RMK A01 T01001004  RH  049%=      5-min Rain = 0
KPT1 220845Z 28002KT 10/M00 A3011 RMK A01 T00961003  RH  051%=      5-min Rain = 0
KPT1 220850Z 25002KT 10/M01 A3011 RMK A01 T01001005  RH  049%=      5-min Rain = 0
KPT1 220855Z 23002KT 10/M01 A3011 RMK A01 T01001005  RH  049%=      5-min Rain = 0
KPT1 220900Z 21002KT 10/M00 A3011 RMK A01 T01001003  RH  049%=      5-min Rain = 0
KPT1 220905Z 20002KT 10/M00 A3011 RMK A01 T00991003  RH  050%=      5-min Rain = 0
KPT1 220910Z 18003KT 11/M00 A3011 RMK A01 T01051002  RH  048%=      5-min Rain = 0
KPT1 220915Z 17003KT 11/00 A301 RMK A01 T010700-0  RH  048%=      5-min Rain = 0
KPT1 220920Z 14002KT 10/00 A301 RMK A01 T00990001  RH  051%=      5-min Rain = 0
KPT1 220925Z 11002KT 10/M00 A301 RMK A01 T00981002  RH  051%=      5-min Rain = 0
KPT1 220930Z 08002KT 10/M01 A301 RMK A01 T01011005  RH  048%=      5-min Rain = 0
KPT1 220935Z 08000KT 11/M01 A301 RMK A01 T01051006  RH  047%=      5-min Rain = 0
KPT1 220940Z 15000KT 10/M00 A301 RMK A01 T01001004  RH  049%=      5-min Rain = 0
KPT1 220945Z 15000KT 09/00 A301 RMK A01 T00920003  RH  054%=      5-min Rain = 0
KPT1 220950Z 00000KT 08/01 A301 RMK A01 T00830007  RH  059%=      5-min Rain = 0
KPT1 220955Z 00000KT 08/01 A301 RMK A01 T00830007  RH  059%=      5-min Rain = 0
KPT1 221000Z 03000KT 09/01 A3009 RMK A01 T00880006  RH  057%=      5-min Rain = 0
KPT1 221005Z 02001KT 09/01 A3009 RMK A01 T00870006  RH  057%=      5-min Rain = 0
KPT1 221010Z 03002KT 09/01 A3009 RMK A01 T00850005  RH  058%=      5-min Rain = 0
KPT1 221015Z 03003KT 09/00 A3009 RMK A01 T00900001  RH  054%=      5-min Rain = 0
KPT1 221020Z 02003KT 09/00 A3009 RMK A01 T00910002  RH  054%=      5-min Rain = 0
KPT1 221025Z 02004KT 09/00 A3009 RMK A01 T00870003  RH  056%=      5-min Rain = 0
KPT1 221030Z 36003KT 08/00 A3009 RMK A01 T00810004  RH  059%=      5-min Rain = 0
KPT1 221035Z 35003KT 08/01 A301 RMK A01 T00790007  RH  061%=      5-min Rain = 0
KPT1 221040Z 34004KT 08/01 A301 RMK A01 T00770013  RH  065%=      5-min Rain = 0
KPT1 221045Z 33004KT 07/01 A301 RMK A01 T00730010  RH  065%=      5-min Rain = 0
KPT1 221050Z 33003KT 08/01 A301 RMK A01 T00760007  RH  062%=      5-min Rain = 0
KPT1 221055Z 35003KT 08/01 A301 RMK A01 T00810007  RH  060%=      5-min Rain = 0
KPT1 221100Z 00002KT 08/00 A301 RMK A01 T00840004  RH  058%=      5-min Rain = 0
KPT1 221105Z 33002KT 09/01 A301 RMK A01 T00880008  RH  058%=      5-min Rain = 0
KPT1 221110Z 36002KT 09/01 A301 RMK A01 T00880009  RH  058%=      5-min Rain = 0
KPT1 221115Z 03001KT 09/01 A301 RMK A01 T00900008  RH  057%=      5-min Rain = 0
KPT1 221120Z 04001KT 09/01 A3011 RMK A01 T00910005  RH  056%=      5-min Rain = 0
KPT1 221125Z 02001KT 09/00 A3011 RMK A01 T00940001  RH  053%=      5-min Rain = 0
KPT1 221130Z 01001KT 09/01 A3011 RMK A01 T00940005  RH  055%=      5-min Rain = 0
KPT1 221135Z 01001KT 09/01 A301 RMK A01 T00940005  RH  054%=      5-min Rain = 0
KPT1 221140Z 32000KT 09/01 A3011 RMK A01 T00940010  RH  056%=      5-min Rain = 0
KPT1 221145Z 26001KT 10/01 A3011 RMK A01 T00960008  RH  055%=      5-min Rain = 0
KPT1 221150Z 24002KT 10/01 A3011 RMK A01 T00970014  RH  057%=      5-min Rain = 0
KPT1 221155Z 23002KT 10/02 A3012 RMK A01 T00970017  RH  058%=      5-min Rain = 0
KPT1 221200Z 20002KT 10/01 A3011 RMK A01 T00980011  RH  055%=      5-min Rain = 0
KPT1 221205Z 20002KT 10/01 A3012 RMK A01 T01000011  RH  055%=      5-min Rain = 0
KPT1 221210Z 19003KT 10/02 A3012 RMK A01 T01000017  RH  057%=      5-min Rain = 0
KPT1 221215Z 18003KT 10/02 A3012 RMK A01 T01000023  RH  060%=      5-min Rain = 0
KPT1 221220Z 18004KT 10/02 A3012 RMK A01 T01000021  RH  059%=      5-min Rain = 0
KPT1 221225Z 17004KT 10/02 A3012 RMK A01 T01000016  RH  056%=      5-min Rain = 0
KPT1 221230Z 16004KT 10/01 A3012 RMK A01 T01010014  RH  055%=      5-min Rain = 0
KPT1 221235Z 15005KT 10/01 A3011 RMK A01 T01010011  RH  054%=      5-min Rain = 0
KPT1 221240Z 15006KT 10/01 A3011 RMK A01 T01010012  RH  055%=      5-min Rain = 0
KPT1 221245Z 15006KT 10/01 A3011 RMK A01 T01020011  RH  054%=      5-min Rain = 0
KPT1 221250Z 13007KT 10/01 A301 RMK A01 T01010011  RH  054%=      5-min Rain = 0
KPT1 221255Z 12009KT 10/01 A3009 RMK A01 T00990013  RH  056%=      5-min Rain = 0
KPT1 221300Z 12013G18KT 10/01 A3007 RMK A01 T00970012  RH  056%=      5-min Rain = 0
KPT1 221305Z 11021G27KT 10/01 A3001 RMK A01 T00980006  RH  053%=      5-min Rain = 0
KPT1 221310Z 12019G29KT 10/01 A30 RMK A01 T00990005  RH  053%=      5-min Rain = 0
KPT1 221315Z 13014G21KT 10/01 A3002 RMK A01 T00990012  RH  055%=      5-min Rain = 0
KPT1 221320Z 15009KT 10/02 A3004 RMK A01 T01000021  RH  059%=      5-min Rain = 0
KPT1 221325Z 14008G13KT 11/03 A3004 RMK A01 T01060031  RH  060%=      5-min Rain = 0
KPT1 221330Z 12010KT 11/04 A3002 RMK A01 T01140039  RH  060%=      5-min Rain = 0
KPT1 221335Z 12009G15KT 12/05 A3001 RMK A01 T01180046  RH  062%=      5-min Rain = 0
KPT1 221340Z 14003G9KT 12/05 A3004 RMK A01 T01210049  RH  062%=      5-min Rain = 0
KPT1 221345Z 31004KT 12/05 A3005 RMK A01 T01230051  RH  062%=      5-min Rain = 0
KPT1 221350Z 11003G10KT 12/05 A3005 RMK A01 T01220053  RH  063%=      5-min Rain = 0
KPT1 221355Z 11006G11KT 13/06 A3004 RMK A01 T01280058  RH  063%=      5-min Rain = 0
KPT1 221400Z 17004KT 13/06 A3006 RMK A01 T01270058  RH  064%=      5-min Rain = 0
KPT1 221405Z 20006KT 14/07 A3006 RMK A01 T01350069  RH  065%=      5-min Rain = 0
KPT1 221410Z 16006G12KT 14/08 A3006 RMK A01 T01440076  RH  065%=      5-min Rain = 0
KPT1 221415Z 18006KT 15/08 A3008 RMK A01 T01490078  RH  063%=      5-min Rain = 0
KPT1 221420Z 31005KT 14/07 A3009 RMK A01 T01420069  RH  062%=      5-min Rain = 0
KPT1 221425Z 10008G13KT 14/07 A3006 RMK A01 T01370071  RH  065%=      5-min Rain = 0
KPT1 221430Z 11008KT 15/08 A3006 RMK A01 T01470076  RH  064%=      5-min Rain = 0
KPT1 221435Z 13013G19KT 15/08 A3005 RMK A01 T01520081  RH  064%=      5-min Rain = 0
KPT1 221440Z 12011G18KT 15/08 A3006 RMK A01 T01510081  RH  064%=      5-min Rain = 0
KPT1 221445Z 13011G19KT 15/08 A3006 RMK A01 T01500084  RH  065%=      5-min Rain = 0
KPT1 221450Z 12015KT 15/09 A3004 RMK A01 T01500085  RH  066%=      5-min Rain = 0
KPT1 221455Z 12013G21KT 15/09 A3002 RMK A01 T01480086  RH  068%=      5-min Rain = 0
KPT1 221500Z 11012G19KT 15/09 A3003 RMK A01 T01470086  RH  068%=      5-min Rain = 0
KPT1 221505Z 12011G19KT 15/09 A3002 RMK A01 T01460085  RH  068%=      5-min Rain = 0
KPT1 221510Z 13008G16KT 15/08 A30 RMK A01 T01450083  RH  067%=      5-min Rain = 0
KPT1 221515Z 14012G26KT 15/08 A2999 RMK A01 T01450082  RH  067%=      5-min Rain = 0
KPT1 221520Z 18013G26KT 15/08 A3001 RMK A01 T01460082  RH  066%=      5-min Rain = 0
KPT1 221525Z 16015G24KT 15/08 A30 RMK A01 T01470083  RH  066%=      5-min Rain = 0
KPT1 221530Z 18013G22KT 15/08 A3001 RMK A01 T01470083  RH  066%=      5-min Rain = 0
KPT1 221535Z 19008G13KT 15/08 A3002 RMK A01 T01480084  RH  066%=      5-min Rain = 0
KPT1 221540Z 23006KT 15/08 A3003 RMK A01 T01500083  RH  065%=      5-min Rain = 0
KPT1 221545Z 33005KT 15/08 A3003 RMK A01 T01520083  RH  065%=      5-min Rain = 0
KPT1 221550Z 32006KT 15/09 A3004 RMK A01 T01530085  RH  065%=      5-min Rain = 0
KPT1 221555Z 34006KT 15/09 A3004 RMK A01 T01540085  RH  064%=      5-min Rain = 0
KPT1 221600Z 33005KT 16/08 A3004 RMK A01 T01580084  RH  062%=      5-min Rain = 0
KPT1 221605Z 32004KT 16/08 A3004 RMK A01 T01640083  RH  060%=      5-min Rain = 0
KPT1 221610Z 30003KT 17/08 A3004 RMK A01 T01680081  RH  057%=      5-min Rain = 0
KPT1 221615Z 28005KT 17/08 A3005 RMK A01 T01720082  RH  056%=      5-min Rain = 0
KPT1 221620Z 28007KT 17/08 A3005 RMK A01 T01720082  RH  056%=      5-min Rain = 0
KPT1 221625Z 13006G11KT 18/08 A3004 RMK A01 T01750081  RH  055%=      5-min Rain = 0
KPT1 221630Z 16010G20KT 18/08 A3005 RMK A01 T01810080  RH  052%=      5-min Rain = 0
KPT1 221635Z 16012G18KT 18/08 A3004 RMK A01 T01800082  RH  054%=      5-min Rain = 0
KPT1 221640Z 17009G14KT 18/09 A3004 RMK A01 T01790086  RH  055%=      5-min Rain = 0
KPT1 221645Z 18013G20KT 18/09 A3004 RMK A01 T01760087  RH  057%=      5-min Rain = 0
KPT1 221650Z 18012G19KT 18/09 A3005 RMK A01 T01760088  RH  057%=      5-min Rain = 0
KPT1 221655Z 18011G21KT 18/09 A3005 RMK A01 T01780090  RH  057%=      5-min Rain = 0
KPT1 221700Z 18015G22KT 18/09 A3005 RMK A01 T01770089  RH  057%=      5-min Rain = 0
KPT1 221705Z 19017G27KT 17/09 A3005 RMK A01 T01740091  RH  059%=      5-min Rain = 0
KPT1 221710Z 19017G27KT 17/09 A3005 RMK A01 T01710093  RH  061%=      5-min Rain = 0
KPT1 221715Z 19019G26KT 17/10 A3006 RMK A01 T01720095  RH  061%=      5-min Rain = 0
KPT1 221720Z 19017G25KT 17/10 A3006 RMK A01 T01740097  RH  062%=      5-min Rain = 0
KPT1 221725Z 19018G25KT 17/10 A3006 RMK A01 T01730097  RH  062%=      5-min Rain = 0
KPT1 221730Z 19017G25KT 17/10 A3005 RMK A01 T01700097  RH  063%=      5-min Rain = 0
KPT1 221735Z 19017G26KT 17/10 A3005 RMK A01 T01650098  RH  065%=      5-min Rain = 0
KPT1 221740Z 18013G18KT 17/10 A3005 RMK A01 T01650098  RH  066%=      5-min Rain = 0
KPT1 221745Z 18013G18KT 17/10 A3004 RMK A01 T01670099  RH  065%=      5-min Rain = 0
KPT1 221750Z 18013KT 17/10 A3004 RMK A01 T01690099  RH  064%=      5-min Rain = 0
KPT1 221755Z 19014G22KT 17/10 A3004 RMK A01 T01670097  RH  064%=      5-min Rain = 0
KPT1 221800Z 18012G20KT 16/10 A3004 RMK A01 T01630097  RH  066%=      5-min Rain = 0
KPT1 221805Z 19011G17KT 16/10 A3004 RMK A01 T01620100  RH  068%=      5-min Rain = 0
KPT1 221810Z 18011KT 16/10 A3004 RMK A01 T01620103  RH  069%=      5-min Rain = 0
KPT1 221815Z 18013G21KT 17/11 A3004 RMK A01 T01680105  RH  068%=      5-min Rain = 0
KPT1 221820Z 17015G25KT 18/11 A3004 RMK A01 T01770106  RH  064%=      5-min Rain = 0
KPT1 221825Z 17017G24KT 18/10 A3004 RMK A01 T01780103  RH  062%=      5-min Rain = 0
KPT1 221830Z 17015G21KT 18/10 A3004 RMK A01 T01780104  RH  063%=      5-min Rain = 0
KPT1 221835Z 18014KT 19/10 A3004 RMK A01 T01850104  RH  060%=      5-min Rain = 0
KPT1 221840Z 17013G22KT 19/11 A3004 RMK A01 T01900105  RH  059%=      5-min Rain = 0
KPT1 221845Z 18016G22KT 19/10 A3004 RMK A01 T01900103  RH  058%=      5-min Rain = 0
KPT1 221850Z 17017G23KT 19/10 A3003 RMK A01 T01900100  RH  057%=      5-min Rain = 0
KPT1 221855Z 18018G23KT 19/10 A3003 RMK A01 T01900099  RH  056%=      5-min Rain = 0
KPT1 221900Z 18019G29KT 19/10 A3003 RMK A01 T01920099  RH  056%=      5-min Rain = 0
KPT1 221905Z 17019G26KT 19/10 A3003 RMK A01 T01910101  RH  057%=      5-min Rain = 0
KPT1 221910Z 18017G23KT 19/10 A3002 RMK A01 T01920104  RH  058%=      5-min Rain = 0
KPT1 221915Z 18017G23KT 19/11 A3002 RMK A01 T01940107  RH  058%=      5-min Rain = 0
KPT1 221920Z 18019G28KT 20/11 A3001 RMK A01 T01980107  RH  056%=      5-min Rain = 0
KPT1 221925Z 18020G28KT 20/10 A3001 RMK A01 T01970103  RH  056%=      5-min Rain = 0
KPT1 221930Z 18020G28KT 20/10 A3001 RMK A01 T01980102  RH  055%=      5-min Rain = 0
KPT1 221935Z 18017G25KT 20/10 A3001 RMK A01 T02030103  RH  053%=      5-min Rain = 0
KPT1 221940Z 17018G25KT 21/10 A30 RMK A01 T02050102  RH  052%=      5-min Rain = 0
KPT1 221945Z 18019G28KT 20/10 A30 RMK A01 T02010098  RH  052%=      5-min Rain = 0
KPT1 221950Z 18016G26KT 21/10 A30 RMK A01 T02080100  RH  051%=      5-min Rain = 0
KPT1 221955Z 17021G27KT 21/10 A30 RMK A01 T02070096  RH  050%=      5-min Rain = 0
KPT1 222000Z 18021G28KT 20/09 A30 RMK A01 T02030094  RH  050%=      5-min Rain = 0
KPT1 222005Z 18019G28KT 20/09 A30 RMK A01 T02030094  RH  050%=      5-min Rain = 0
KPT1 222010Z 19020G27KT 20/09 A30 RMK A01 T02010094  RH  051%=      5-min Rain = 0
KPT1 222015Z 18021G27KT 20/09 A30 RMK A01 T01960092  RH  052%=      5-min Rain = 0
KPT1 222020Z 18017G27KT 19/09 A30 RMK A01 T01920094  RH  054%=      5-min Rain = 0
KPT1 222025Z 17017G23KT 19/10 A2999 RMK A01 T01920095  RH  054%=      5-min Rain = 0
KPT1 222030Z 18019G26KT 19/10 A2999 RMK A01 T01900096  RH  055%=      5-min Rain = 0
KPT1 222035Z 17015G20KT 19/10 A2999 RMK A01 T01900097  RH  055%=      5-min Rain = 0
KPT1 222040Z 17017G24KT 19/10 A2999 RMK A01 T01900097  RH  056%=      5-min Rain = 0
KPT1 222045Z 17017G22KT 19/10 A2999 RMK A01 T01880097  RH  057%=      5-min Rain = 0
KPT1 222050Z 17014G20KT 19/10 A2998 RMK A01 T01870098  RH  057%=      5-min Rain = 0
KPT1 222055Z 17011G16KT 19/10 A2998 RMK A01 T01890100  RH  057%=      5-min Rain = 0
KPT1 222100Z 17015G21KT 19/10 A2998 RMK A01 T01890099  RH  057%=      5-min Rain = 0
KPT1 222105Z 17015G20KT 19/10 A2998 RMK A01 T01890100  RH  057%=      5-min Rain = 0
KPT1 222110Z 17015G23KT 19/10 A2997 RMK A01 T01900100  RH  057%=      5-min Rain = 0
KPT1 222115Z 16013G18KT 19/10 A2997 RMK A01 T01930101  RH  056%=      5-min Rain = 0
KPT1 222120Z 17015G21KT 19/10 A2996 RMK A01 T01930102  RH  056%=      5-min Rain = 0
KPT1 222125Z 17015G23KT 20/10 A2996 RMK A01 T01950101  RH  056%=      5-min Rain = 0
KPT1 222130Z 17016G22KT 19/10 A2996 RMK A01 T01940102  RH  056%=      5-min Rain = 0
KPT1 222135Z 17015G22KT 19/10 A2996 RMK A01 T01910102  RH  057%=      5-min Rain = 0
KPT1 222140Z 17014G20KT 19/10 A2996 RMK A01 T01900102  RH  058%=      5-min Rain = 0
KPT1 222145Z 16014G20KT 19/10 A2995 RMK A01 T01900103  RH  058%=      5-min Rain = 0
KPT1 222150Z 16015G23KT 19/10 A2995 RMK A01 T01920102  RH  057%=      5-min Rain = 0
KPT1 222155Z 15016G21KT 19/10 A2994 RMK A01 T01920102  RH  057%=      5-min Rain = 0
KPT1 222200Z 14014G19KT 19/10 A2994 RMK A01 T01880103  RH  058%=      5-min Rain = 0
KPT1 222205Z 14013KT 19/10 A2994 RMK A01 T01860103  RH  059%=      5-min Rain = 0
KPT1 222210Z 15013KT 19/10 A2993 RMK A01 T01860103  RH  059%=      5-min Rain = 0
KPT1 222215Z 15012KT 19/10 A2993 RMK A01 T01860103  RH  059%=      5-min Rain = 0
KPT1 222220Z 15012KT 19/10 A2993 RMK A01 T01870103  RH  059%=      5-min Rain = 0
KPT1 222225Z 15011G16KT 19/10 A2994 RMK A01 T01870103  RH  059%=      5-min Rain = 0
KPT1 222230Z 15012G19KT 19/10 A2993 RMK A01 T01890103  RH  058%=      5-min Rain = 0
KPT1 222235Z 15011KT 19/10 A2993 RMK A01 T01890103  RH  058%=      5-min Rain = 0
KPT1 222240Z 16011G16KT 19/10 A2993 RMK A01 T01890102  RH  058%=      5-min Rain = 0
KPT1 222245Z 16009G15KT 19/10 A2994 RMK A01 T01890102  RH  058%=      5-min Rain = 0
KPT1 222250Z 17012KT 19/10 A2993 RMK A01 T01910100  RH  057%=      5-min Rain = 0
KPT1 222255Z 17012G18KT 19/10 A2993 RMK A01 T01920100  RH  056%=      5-min Rain = 0
KPT1 222300Z 17013G20KT 19/10 A2993 RMK A01 T01910100  RH  056%=      5-min Rain = 0
KPT1 222305Z 17014KT 19/10 A2993 RMK A01 T01910100  RH  056%=      5-min Rain = 0
KPT1 222310Z 17010G15KT 19/10 A2993 RMK A01 T01910101  RH  057%=      5-min Rain = 0
KPT1 222315Z 18011G18KT 19/10 A2993 RMK A01 T01910101  RH  057%=      5-min Rain = 0
KPT1 222320Z 17011G17KT 19/10 A2993 RMK A01 T01930102  RH  057%=      5-min Rain = 0
KPT1 222325Z 17010G16KT 19/10 A2994 RMK A01 T01940102  RH  056%=      5-min Rain = 0
KPT1 222330Z 18012G19KT 20/10 A2994 RMK A01 T01950101  RH  056%=      5-min Rain = 0
KPT1 222335Z 17012KT 19/10 A2994 RMK A01 T01940101  RH  056%=      5-min Rain = 0
KPT1 222340Z 17013KT 19/10 A2994 RMK A01 T01940101  RH  056%=      5-min Rain = 0
KPT1 222345Z 17015G22KT 19/10 A2993 RMK A01 T01930100  RH  056%=      5-min Rain = 0
KPT1 222350Z 17014G19KT 19/10 A2994 RMK A01 T01920100  RH  056%=      5-min Rain = 0
KPT1 222355Z 17014G21KT 19/10 A2994 RMK A01 T01920100  RH  056%=      5-min Rain = 0
KPT1 230000Z 18016G22KT 19/10 A2994 RMK A01 T01920100  RH  056%=      5-min Rain = 0
KPT1 230005Z 18014KT 19/10 A2994 RMK A01 T01920100  RH  056%=      5-min Rain = 0
KPT1 230010Z 18013KT 19/10 A2994 RMK A01 T01910100  RH  057%=      5-min Rain = 0
KPT1 230015Z 18014G20KT 19/10 A2994 RMK A01 T01900100  RH  057%=      5-min Rain = 0
KPT1 230020Z 18014G20KT 19/10 A2995 RMK A01 T01900100  RH  057%=      5-min Rain = 0
KPT1 230025Z 18012KT 19/10 A2995 RMK A01 T01890100  RH  057%=      5-min Rain = 0
KPT1 230030Z 17011KT 19/10 A2995 RMK A01 T01880101  RH  058%=      5-min Rain = 0
KPT1 230035Z 17012KT 19/10 A2994 RMK A01 T01880101  RH  058%=      5-min Rain = 0
KPT1 230040Z 17013G18KT 19/10 A2994 RMK A01 T01860100  RH  058%=      5-min Rain = 0
KPT1 230045Z 17012KT 19/10 A2994 RMK A01 T01850100  RH  059%=      5-min Rain = 0
KPT1 230050Z 16012KT 18/10 A2994 RMK A01 T01830100  RH  059%=      5-min Rain = 0
KPT1 230055Z 17011KT 18/10 A2994 RMK A01 T01810101  RH  060%=      5-min Rain = 0
KPT1 230100Z 17011G17KT 18/10 A2994 RMK A01 T01800101  RH  061%=      5-min Rain = 0
KPT1 230105Z 17009KT 18/10 A2994 RMK A01 T01780101  RH  061%=      5-min Rain = 0
KPT1 230110Z 17009KT 18/10 A2994 RMK A01 T01770100  RH  062%=      5-min Rain = 0
KPT1 230115Z 17009KT 18/10 A2994 RMK A01 T01750100  RH  062%=      5-min Rain = 0
KPT1 230120Z 17009KT 17/10 A2994 RMK A01 T01740100  RH  063%=      5-min Rain = 0
KPT1 230125Z 17011KT 17/10 A2993 RMK A01 T01740099  RH  063%=      5-min Rain = 0
KPT1 230130Z 17010KT 17/10 A2993 RMK A01 T01730099  RH  063%=      5-min Rain = 0
KPT1 230135Z 17010KT 17/10 A2993 RMK A01 T01710099  RH  063%=      5-min Rain = 0
KPT1 230140Z 17010KT 17/10 A2993 RMK A01 T01710099  RH  063%=      5-min Rain = 0
KPT1 230145Z 17009KT 17/10 A2993 RMK A01 T01700098  RH  064%=      5-min Rain = 0
KPT1 230150Z 18009KT 17/10 A2994 RMK A01 T01690098  RH  064%=      5-min Rain = 0
KPT1 230155Z 18008KT 17/10 A2994 RMK A01 T01670098  RH  065%=      5-min Rain = 0
KPT1 230200Z 18008KT 17/10 A2994 RMK A01 T01660098  RH  065%=      5-min Rain = 0
KPT1 230205Z 17009KT 17/10 A2994 RMK A01 T01650098  RH  066%=      5-min Rain = 0
KPT1 230210Z 17009KT 16/10 A2994 RMK A01 T01640098  RH  066%=      5-min Rain = 0
KPT1 230215Z 17009KT 16/10 A2994 RMK A01 T01640097  RH  066%=      5-min Rain = 0
KPT1 230220Z 17008KT 16/10 A2994 RMK A01 T01620097  RH  066%=      5-min Rain = 0
KPT1 230225Z 17008KT 16/10 A2995 RMK A01 T01600097  RH  067%=      5-min Rain = 0
KPT1 230230Z 16008KT 16/10 A2995 RMK A01 T01580097  RH  068%=      5-min Rain = 0
KPT1 230235Z 16009KT 16/10 A2995 RMK A01 T01580096  RH  068%=      5-min Rain = 0
KPT1 230240Z 16009KT 16/10 A2994 RMK A01 T01590096  RH  067%=      5-min Rain = 0
KPT1 230245Z 17008KT 16/10 A2994 RMK A01 T01570096  RH  068%=      5-min Rain = 0
KPT1 230250Z 17007KT 16/10 A2994 RMK A01 T01560096  RH  068%=      5-min Rain = 0
KPT1 230255Z 17008KT 16/10 A2994 RMK A01 T01550096  RH  069%=      5-min Rain = 0
KPT1 230300Z 17008KT 15/10 A2995 RMK A01 T01540096  RH  069%=      5-min Rain = 0
KPT1 230305Z 17008KT 15/10 A2995 RMK A01 T01540096  RH  069%=      5-min Rain = 0
KPT1 230310Z 16009KT 16/10 A2995 RMK A01 T01550096  RH  069%=      5-min Rain = 0
KPT1 230315Z 16009KT 15/10 A2995 RMK A01 T01540096  RH  069%=      5-min Rain = 0
KPT1 230320Z 16009KT 15/10 A2995 RMK A01 T01530096  RH  070%=      5-min Rain = 0
KPT1 230325Z 16009KT 15/10 A2995 RMK A01 T01520096  RH  071%=      5-min Rain = 0
KPT1 230330Z 15009KT 15/10 A2995 RMK A01 T01500096  RH  071%=      5-min Rain = 0
KPT1 230335Z 16009KT 15/10 A2995 RMK A01 T01490097  RH  072%=      5-min Rain = 0
KPT1 230340Z 16008KT 15/10 A2995 RMK A01 T01480097  RH  072%=      5-min Rain = 0
KPT1 230345Z 16009G14KT 15/10 A2995 RMK A01 T01490097  RH  072%=      5-min Rain = 0
KPT1 230350Z 16009KT 15/10 A2995 RMK A01 T01490098  RH  073%=      5-min Rain = 0
KPT1 230355Z 16011KT 15/10 A2995 RMK A01 T01540099  RH  071%=      5-min Rain = 0
KPT1 230400Z 17012KT 16/10 A2995 RMK A01 T01570099  RH  070%=      5-min Rain = 0
KPT1 230405Z 17011KT 16/10 A2995 RMK A01 T01580099  RH  069%=      5-min Rain = 0
KPT1 230410Z 17011G16KT 16/10 A2995 RMK A01 T01590100  RH  069%=      5-min Rain = 0
KPT1 230415Z 17009G14KT 16/10 A2996 RMK A01 T01580099  RH  069%=      5-min Rain = 0
KPT1 230420Z 18010KT 16/10 A2996 RMK A01 T01570099  RH  070%=      5-min Rain = 0
KPT1 230425Z 18009G14KT 16/10 A2996 RMK A01 T01580099  RH  069%=      5-min Rain = 0
KPT1 230430Z 18010G15KT 16/10 A2996 RMK A01 T01580100  RH  069%=      5-min Rain = 0
KPT1 230435Z 18012KT 16/10 A2996 RMK A01 T01590100  RH  069%=      5-min Rain = 0
KPT1 230440Z 18013G20KT 16/10 A2996 RMK A01 T01600100  RH  069%=      5-min Rain = 0
KPT1 230445Z 18012G20KT 16/10 A2996 RMK A01 T01620101  RH  068%=      5-min Rain = 0
KPT1 230450Z 19011G18KT 16/10 A2996 RMK A01 T01620101  RH  068%=      5-min Rain = 0
KPT1 230455Z 19011G16KT 16/10 A2996 RMK A01 T01620101  RH  068%=      5-min Rain = 0

Page generated in 0.0463 seconds.